Time;durP1;ratioP1;P1;durP2;ratioP2;P2;SDS_P1;SDS_P2;PMS_P1;PMS_P2;Temp;Humidity;BMP_temperature;BMP_pressure;BME280_temperature;BME280_humidity;BME280_pressure;Samples;Min_cycle;Max_cycle;Signal;HPM_P1;HPM_P2
2023/02/04 00:00:57;;;;;;;17.83;3.73;;;;;;;5.31;92.64;101944.66;5093383;28;20238;-81
2023/02/04 00:03:23;;;;;;;27.90;5.27;;;;;;;5.28;92.71;101959.69;5088837;28;20197;-82
2023/02/04 00:05:50;;;;;;;17.77;4.20;;;;;;;5.23;92.72;101971.22;5082139;28;20209;-82
2023/02/04 00:08:16;;;;;;;25.73;3.47;;;;;;;5.19;92.67;101963.41;5085333;28;20228;-83
2023/02/04 00:10:42;;;;;;;21.30;4.00;;;;;;;5.16;92.90;101968.75;5087761;28;20204;-80
2023/02/04 00:13:10;;;;;;;21.07;3.57;;;;;;;5.13;92.58;101971.44;5084151;28;20726;-83
2023/02/04 00:15:37;;;;;;;19.30;3.27;;;;;;;5.10;92.58;101972.38;5082673;28;20630;-81
2023/02/04 00:18:04;;;;;;;16.00;2.97;;;;;;;5.07;92.48;101963.63;5083089;28;20211;-82
2023/02/04 00:20:31;;;;;;;13.87;3.27;;;;;;;5.04;92.36;101971.63;5088450;28;20854;-81
2023/02/04 00:22:57;;;;;;;15.43;3.03;;;;;;;5.03;92.53;101983.06;5090094;28;20216;-82
2023/02/04 00:25:26;;;;;;;15.70;2.90;;;;;;;4.99;92.10;101984.94;5085521;28;20201;-83
2023/02/04 00:27:57;;;;;;;14.53;2.93;;;;;;;4.98;91.97;101991.09;5092982;28;20228;-82
2023/02/04 00:30:25;;;;;;;18.53;2.93;;;;;;;4.95;91.82;101988.53;5090320;28;20224;-82
2023/02/04 00:32:53;;;;;;;16.17;2.47;;;;;;;4.92;91.33;102000.91;5092771;28;20211;-82
2023/02/04 00:35:20;;;;;;;15.00;2.60;;;;;;;4.89;91.24;101989.50;5087610;28;20278;-82
2023/02/04 00:37:46;;;;;;;21.87;3.77;;;;;;;4.87;91.00;102007.13;5089707;28;20200;-81
2023/02/04 00:40:13;;;;;;;24.40;5.10;;;;;;;4.84;90.70;102007.19;5087830;28;20224;-81
2023/02/04 00:42:39;;;;;;;22.80;3.57;;;;;;;4.82;90.54;102009.00;5092696;28;20204;-82
2023/02/04 00:45:07;;;;;;;19.63;3.63;;;;;;;4.79;90.76;102014.34;5092025;28;20208;-82
2023/02/04 00:47:34;;;;;;;17.63;4.10;;;;;;;4.77;90.13;102020.53;5086535;28;20208;-81
2023/02/04 00:50:10;;;;;;;15.33;2.67;;;;;;;4.74;90.65;102016.16;5083343;28;20225;-81
2023/02/04 00:52:36;;;;;;;13.77;3.00;;;;;;;4.72;90.17;102035.56;5092617;28;20560;-82
2023/02/04 00:55:03;;;;;;;9.17;2.90;;;;;;;4.68;90.04;102045.28;5089763;28;20200;-81
2023/02/04 00:57:30;;;;;;;11.00;2.17;;;;;;;4.67;90.33;102064.66;5095805;28;20653;-82
2023/02/04 00:59:56;;;;;;;14.97;2.83;;;;;;;4.67;89.77;102071.72;5094581;28;20236;-81
2023/02/04 01:02:23;;;;;;;11.47;2.70;;;;;;;4.63;89.54;102076.19;5091600;28;20200;-82
2023/02/04 01:04:50;;;;;;;10.83;2.13;;;;;;;4.63;89.89;102092.03;5088733;28;20214;-82
2023/02/04 01:07:17;;;;;;;9.07;2.30;;;;;;;4.62;89.63;102094.69;5086509;28;20204;-83
2023/02/04 01:09:44;;;;;;;13.97;2.00;;;;;;;4.61;89.91;102093.81;5089326;28;20227;-82
2023/02/04 01:12:10;;;;;;;12.90;1.97;;;;;;;4.62;90.13;102099.97;5088505;28;20200;-81
2023/02/04 01:14:37;;;;;;;10.80;1.60;;;;;;;4.62;89.77;102111.38;5086043;28;20216;-81
2023/02/04 01:17:03;;;;;;;6.97;1.33;;;;;;;4.60;89.69;102110.53;5094015;28;20211;-81
2023/02/04 01:19:29;;;;;;;6.80;0.80;;;;;;;4.59;89.51;102116.69;5089386;28;20231;-80
2023/02/04 01:21:57;;;;;;;6.90;1.57;;;;;;;4.58;89.46;102114.97;5092695;28;20203;-81
2023/02/04 01:24:24;;;;;;;4.63;0.80;;;;;;;4.55;89.66;102122.91;5086518;28;20200;-80
2023/02/04 01:26:50;;;;;;;4.33;0.97;;;;;;;4.53;89.83;102129.97;5092461;28;20211;-81
2023/02/04 01:29:17;;;;;;;6.03;0.97;;;;;;;4.53;89.42;102143.16;5090220;28;20228;-81
2023/02/04 01:31:43;;;;;;;2.40;1.00;;;;;;;4.52;89.20;102137.03;5086379;28;20212;-82
2023/02/04 01:34:10;;;;;;;3.83;0.70;;;;;;;4.52;89.16;102151.97;5087455;28;20650;-82
2023/02/04 01:36:36;;;;;;;4.60;1.00;;;;;;;4.51;89.01;102153.75;5093223;28;20207;-82
2023/02/04 01:39:04;;;;;;;1.43;0.57;;;;;;;4.51;89.40;102156.38;5091598;28;20242;-81
2023/02/04 01:41:30;;;;;;;3.07;1.60;;;;;;;4.50;88.77;102165.19;5095809;28;20205;-81
2023/02/04 01:43:58;;;;;;;3.07;0.80;;;;;;;4.49;89.02;102174.00;5091940;28;20201;-82
2023/02/04 01:46:25;;;;;;;3.47;0.67;;;;;;;4.51;88.77;102173.97;5097195;28;20640;-82
2023/02/04 01:48:52;;;;;;;2.00;0.83;;;;;;;4.50;88.50;102185.41;5087538;28;20232;-81
2023/02/04 01:51:25;;;;;;;1.83;0.60;;;;;;;4.46;87.97;102189.91;5099360;28;20302;-82
2023/02/04 01:53:52;;;;;;;1.90;0.60;;;;;;;4.46;87.94;102195.16;5095267;28;20235;-82
2023/02/04 01:56:22;;;;;;;2.30;0.70;;;;;;;4.46;88.11;102199.56;5092040;28;20208;-82
2023/02/04 01:58:49;;;;;;;1.63;1.00;;;;;;;4.46;88.08;102200.44;5089477;28;20223;-82
2023/02/04 02:01:33;;;;;;;1.87;0.80;;;;;;;4.46;87.87;102203.09;5090397;28;20197;-81
2023/02/04 02:04:00;;;;;;;2.43;0.70;;;;;;;4.48;88.03;102210.94;5094745;28;20583;-82
2023/02/04 02:06:28;;;;;;;1.20;0.60;;;;;;;4.47;88.42;102212.75;5098240;28;20200;-82
2023/02/04 02:08:54;;;;;;;1.30;0.70;;;;;;;4.48;87.92;102219.75;5101068;28;20231;-81
2023/02/04 02:11:22;;;;;;;1.43;0.40;;;;;;;4.46;87.89;102224.19;5101608;28;20675;-82
2023/02/04 02:13:49;;;;;;;1.93;0.70;;;;;;;4.46;87.87;102236.50;5097223;28;20204;-82
2023/02/04 02:16:15;;;;;;;1.23;0.40;;;;;;;4.48;88.11;102237.34;5093467;28;20207;-82
2023/02/04 02:18:41;;;;;;;4.83;0.70;;;;;;;4.47;87.94;102238.25;5098221;28;20228;-80
2023/02/04 02:21:11;;;;;;;4.07;0.80;;;;;;;4.47;87.97;102243.53;5091619;28;20200;-81
2023/02/04 02:23:47;;;;;;;1.43;0.70;;;;;;;4.45;88.18;102240.03;5091858;28;20211;-81
2023/02/04 02:26:15;;;;;;;1.73;0.50;;;;;;;4.45;88.04;102240.91;5082357;28;20200;-81
2023/02/04 02:28:42;;;;;;;2.53;0.70;;;;;;;4.44;88.14;102248.84;5090436;28;20707;-81
2023/02/04 02:31:09;;;;;;;1.57;0.70;;;;;;;4.42;88.55;102255.91;5093792;28;20203;-81
2023/02/04 02:33:36;;;;;;;3.70;1.37;;;;;;;4.42;88.21;102246.22;5092496;28;20216;-81
2023/02/04 02:36:03;;;;;;;0.87;0.50;;;;;;;4.40;88.30;102263.81;5094208;28;20201;-81
2023/02/04 02:38:30;;;;;;;1.73;0.60;;;;;;;4.38;88.18;102278.78;5089359;28;20713;-81
2023/02/04 02:40:58;;;;;;;1.33;0.47;;;;;;;4.35;87.52;102293.78;5096233;28;20204;-81
2023/02/04 02:43:28;;;;;;;2.30;0.40;;;;;;;4.31;86.71;102289.41;5092450;28;20208;-81
2023/02/04 02:45:56;;;;;;;1.17;0.53;;;;;;;4.25;85.68;102297.41;5101727;28;20215;-81
2023/02/04 02:48:23;;;;;;;1.27;0.50;;;;;;;4.21;85.57;102293.06;5101081;28;20215;-81
2023/02/04 02:50:53;;;;;;;1.03;0.40;;;;;;;4.15;84.34;102294.88;5092141;28;20719;-80
2023/02/04 02:53:20;;;;;;;0.83;0.53;;;;;;;4.11;83.65;102297.56;5092423;28;20209;-80
2023/02/04 02:55:48;;;;;;;1.10;0.50;;;;;;;4.08;83.25;102310.78;5083463;28;20798;-81
2023/02/04 02:58:20;;;;;;;2.27;0.47;;;;;;;4.07;83.09;102317.81;5094467;28;20215;-81
2023/02/04 03:00:47;;;;;;;1.77;0.50;;;;;;;4.06;82.39;102326.63;5092667;28;20204;-82
2023/02/04 03:03:17;;;;;;;1.27;0.50;;;;;;;4.01;82.21;102323.16;5099937;28;20235;-80
2023/02/04 03:05:49;;;;;;;0.40;0.40;;;;;;;3.99;81.53;102337.22;5091398;28;20205;-81
2023/02/04 03:08:16;;;;;;;0.47;0.43;;;;;;;3.96;81.73;102337.25;5095912;28;20213;-81
2023/02/04 03:10:44;;;;;;;2.30;0.67;;;;;;;3.95;81.75;102346.91;5092391;28;21375;-82
2023/02/04 03:13:12;;;;;;;2.23;0.63;;;;;;;3.93;82.06;102342.56;5095878;28;20211;-81
2023/02/04 03:15:41;;;;;;;1.83;0.73;;;;;;;3.90;82.10;102346.09;5096030;28;20208;-82
2023/02/04 03:18:08;;;;;;;1.00;0.73;;;;;;;3.88;81.50;102360.19;5096204;28;20208;-81
2023/02/04 03:20:35;;;;;;;1.60;1.03;;;;;;;3.86;81.86;102360.19;5093870;28;20200;-81
2023/02/04 03:23:01;;;;;;;3.00;0.70;;;;;;;3.81;81.78;102365.50;5091121;28;20215;-81
2023/02/04 03:25:28;;;;;;;1.67;0.90;;;;;;;3.79;81.99;102375.16;5095802;28;20203;-80
2023/02/04 03:27:56;;;;;;;1.07;0.57;;;;;;;3.79;81.37;102385.72;5089534;28;20204;-81
2023/02/04 03:30:24;;;;;;;0.40;0.40;;;;;;;3.76;81.25;102391.00;5092939;28;20230;-81
2023/02/04 03:32:52;;;;;;;0.57;0.50;;;;;;;3.74;82.01;102397.19;5093688;28;20645;-82
2023/02/04 03:35:19;;;;;;;1.60;0.60;;;;;;;3.72;81.29;102412.13;5092033;28;20203;-81
2023/02/04 03:37:45;;;;;;;1.73;0.60;;;;;;;3.68;81.35;102416.53;5087660;28;20220;-81
2023/02/04 03:40:13;;;;;;;0.90;0.60;;;;;;;3.65;82.11;102416.56;5091399;28;20219;-81
2023/02/04 03:42:40;;;;;;;2.00;0.90;;;;;;;3.63;81.18;102420.09;5092318;28;20604;-81
2023/02/04 03:45:07;;;;;;;1.67;0.57;;;;;;;3.62;82.08;102426.25;5091454;28;20204;-82
2023/02/04 03:47:33;;;;;;;0.67;0.50;;;;;;;3.58;81.18;102429.81;5094530;28;20204;-82
2023/02/04 03:50:01;;;;;;;2.07;0.80;;;;;;;3.55;82.04;102443.00;5090926;28;20224;-81
2023/02/04 03:52:27;;;;;;;0.70;0.70;;;;;;;3.53;81.21;102439.47;5086792;28;20200;-81
2023/02/04 03:54:54;;;;;;;1.00;0.57;;;;;;;3.49;81.90;102442.13;5092750;28;20219;-81
2023/02/04 03:57:20;;;;;;;0.83;0.60;;;;;;;3.45;81.88;102440.38;5092797;28;20219;-82
2023/02/04 03:59:47;;;;;;;1.97;0.60;;;;;;;3.42;81.22;102458.84;5092289;28;20725;-82
2023/02/04 04:02:13;;;;;;;0.40;0.40;;;;;;;3.40;81.47;102460.59;5092082;28;20200;-81
2023/02/04 04:04:40;;;;;;;0.60;0.60;;;;;;;3.40;81.48;102451.84;5089298;28;20204;-81
2023/02/04 04:07:07;;;;;;;1.00;0.70;;;;;;;3.39;81.82;102464.16;5086694;28;20196;-81
2023/02/04 04:09:34;;;;;;;0.70;0.67;;;;;;;3.37;81.49;102463.28;5090599;28;20696;-81
2023/02/04 04:12:02;;;;;;;0.60;0.60;;;;;;;3.37;81.68;102471.19;5093698;28;20698;-82
2023/02/04 04:14:29;;;;;;;2.73;0.93;;;;;;;3.38;81.38;102472.06;5091964;28;20204;-80
2023/02/04 04:16:55;;;;;;;1.97;0.70;;;;;;;3.37;81.50;102476.44;5086680;28;20213;-81
2023/02/04 04:19:23;;;;;;;1.00;0.57;;;;;;;3.38;81.92;102487.84;5090996;28;20729;-81
2023/02/04 04:21:50;;;;;;;1.37;0.60;;;;;;;3.36;81.57;102490.50;5086884;28;20744;-80
2023/02/04 04:24:17;;;;;;;1.20;0.60;;;;;;;3.32;81.41;102483.47;5091712;28;20199;-81
2023/02/04 04:26:44;;;;;;;2.30;0.70;;;;;;;3.30;81.63;102487.88;5091068;28;20204;-81
2023/02/04 04:29:10;;;;;;;1.27;0.67;;;;;;;3.29;81.59;102488.75;5090846;28;20228;-80
2023/02/04 04:31:37;;;;;;;0.90;0.60;;;;;;;3.27;82.01;102494.91;5094700;28;20203;-81
2023/02/04 04:34:03;;;;;;;1.80;0.60;;;;;;;3.21;81.31;102495.81;5083218;28;20211;-80
2023/02/04 04:36:30;;;;;;;1.50;0.80;;;;;;;3.17;81.76;102506.38;5090896;28;20567;-80
2023/02/04 04:38:56;;;;;;;2.03;0.90;;;;;;;3.13;81.23;102513.38;5092329;28;20784;-80
2023/02/04 04:41:24;;;;;;;1.63;0.90;;;;;;;3.11;82.21;102525.66;5091157;28;20197;-80
2023/02/04 04:43:50;;;;;;;1.83;0.90;;;;;;;3.09;82.04;102523.03;5089858;28;20664;-80
2023/02/04 04:46:17;;;;;;;2.40;0.90;;;;;;;3.07;81.56;102530.06;5086479;28;20212;-80
2023/02/04 04:48:43;;;;;;;1.60;0.90;;;;;;;3.03;81.47;102533.59;5092803;28;20226;-80
2023/02/04 04:51:10;;;;;;;1.00;0.80;;;;;;;3.01;82.38;102534.50;5089347;28;20207;-81
2023/02/04 04:53:36;;;;;;;1.17;0.73;;;;;;;2.98;82.04;102539.75;5090753;28;20208;-81
2023/02/04 04:56:03;;;;;;;0.77;0.77;;;;;;;2.94;81.71;102536.25;5082386;28;20204;-80
2023/02/04 04:58:31;;;;;;;2.83;1.23;;;;;;;2.92;82.31;102540.63;5086896;28;20244;-81
2023/02/04 05:00:57;;;;;;;2.03;0.90;;;;;;;2.89;81.93;102547.66;5089567;28;20197;-81
2023/02/04 05:03:24;;;;;;;0.97;0.80;;;;;;;2.87;82.45;102558.16;5089458;28;20287;-80
2023/02/04 05:05:50;;;;;;;0.77;0.77;;;;;;;2.85;82.75;102559.97;5089580;28;20208;-80
2023/02/04 05:08:18;;;;;;;1.20;0.87;;;;;;;2.82;82.97;102553.81;5090191;28;20204;-80
2023/02/04 05:10:45;;;;;;;1.03;0.93;;;;;;;2.79;82.87;102557.31;5090250;28;20247;-80
2023/02/04 05:13:11;;;;;;;1.87;1.00;;;;;;;2.76;83.18;102560.81;5086776;28;20208;-80
2023/02/04 05:15:39;;;;;;;2.47;0.90;;;;;;;2.74;82.85;102562.56;5087310;28;20211;-81
2023/02/04 05:18:06;;;;;;;1.90;1.00;;;;;;;2.72;83.54;102563.44;5079509;28;20215;-81
2023/02/04 05:20:32;;;;;;;1.93;0.90;;;;;;;2.67;83.20;102563.47;5089392;28;20204;-80
2023/02/04 05:22:59;;;;;;;2.57;1.03;;;;;;;2.63;82.79;102574.00;5087993;28;20203;-80
2023/02/04 05:25:27;;;;;;;1.77;1.17;;;;;;;2.59;83.54;102578.38;5097062;28;20212;-80
2023/02/04 05:27:53;;;;;;;1.27;1.00;;;;;;;2.55;83.55;102575.72;5091326;28;20204;-79
2023/02/04 05:30:22;;;;;;;2.23;0.90;;;;;;;2.51;83.79;102580.09;5091648;28;20239;-80
2023/02/04 05:32:50;;;;;;;3.00;0.80;;;;;;;2.48;83.00;102587.13;5092744;28;20212;-80
2023/02/04 05:35:17;;;;;;;1.77;0.97;;;;;;;2.43;83.52;102590.63;5086760;28;20208;-80
2023/02/04 05:37:43;;;;;;;1.63;0.90;;;;;;;2.39;83.87;102591.50;5091980;28;20211;-81
2023/02/04 05:40:11;;;;;;;1.53;1.00;;;;;;;2.36;84.22;102598.50;5091917;28;20219;-80
2023/02/04 05:42:37;;;;;;;1.83;1.20;;;;;;;2.32;83.91;102604.66;5083275;28;20197;-81
2023/02/04 05:45:04;;;;;;;1.43;1.10;;;;;;;2.27;84.02;102606.38;5084448;28;20648;-80
2023/02/04 05:47:31;;;;;;;1.70;1.37;;;;;;;2.24;83.59;102616.91;5083508;28;20208;-80
2023/02/04 05:49:59;;;;;;;3.20;1.50;;;;;;;2.20;84.28;102628.25;5090359;28;20235;-80
2023/02/04 05:52:25;;;;;;;2.33;1.60;;;;;;;2.17;84.24;102636.13;5089185;28;20213;-80
2023/02/04 05:54:52;;;;;;;1.80;1.50;;;;;;;2.12;84.82;102628.25;5090938;28;20220;-80
2023/02/04 05:57:18;;;;;;;2.97;1.37;;;;;;;2.06;83.96;102629.13;5092054;28;20215;-80
2023/02/04 05:59:45;;;;;;;2.10;1.73;;;;;;;2.01;84.21;102641.34;5092660;28;20228;-81
2023/02/04 06:02:11;;;;;;;3.53;1.60;;;;;;;1.94;83.99;102639.59;5093601;28;20208;-81
2023/02/04 06:04:37;;;;;;;2.13;1.87;;;;;;;1.88;84.62;102646.56;5089284;28;20208;-81
2023/02/04 06:07:05;;;;;;;3.27;1.87;;;;;;;1.83;84.20;102645.66;5089119;28;20208;-80
2023/02/04 06:09:33;;;;;;;2.60;1.87;;;;;;;1.78;85.07;102653.53;5083420;28;20228;-82
2023/02/04 06:11:59;;;;;;;3.57;1.90;;;;;;;1.75;85.40;102664.03;5087419;28;20249;-81
2023/02/04 06:14:25;;;;;;;2.97;2.67;;;;;;;1.70;84.64;102660.47;5089492;28;20215;-81
2023/02/04 06:16:52;;;;;;;2.87;1.90;;;;;;;1.65;85.26;102654.31;5089713;28;20204;-84
2023/02/04 06:19:18;;;;;;;4.00;2.03;;;;;;;1.61;85.49;102661.28;5095425;28;20227;-84
2023/02/04 06:21:45;;;;;;;3.90;1.57;;;;;;;1.57;85.93;102662.19;5092754;28;20223;-84
2023/02/04 06:24:13;;;;;;;1.57;1.33;;;;;;;1.55;85.96;102663.03;5095248;28;20202;-82
2023/02/04 06:26:39;;;;;;;2.33;1.40;;;;;;;1.51;85.90;102666.50;5089179;28;20203;-82
2023/02/04 06:29:06;;;;;;;1.90;1.37;;;;;;;1.44;85.12;102673.44;5091317;28;20600;-81
2023/02/04 06:31:32;;;;;;;3.33;2.53;;;;;;;1.37;85.53;102684.78;5091275;28;20718;-82
2023/02/04 06:33:59;;;;;;;2.43;1.60;;;;;;;1.33;86.04;102681.25;5092899;28;20671;-81
2023/02/04 06:36:25;;;;;;;1.60;1.50;;;;;;;1.28;86.59;102687.34;5084641;28;20216;-83
2023/02/04 06:38:52;;;;;;;2.20;1.37;;;;;;;1.26;86.44;102686.44;5092354;28;20261;-81
2023/02/04 06:41:19;;;;;;;3.13;1.20;;;;;;;1.23;86.38;102689.97;5092333;28;20204;-82
2023/02/04 06:43:46;;;;;;;1.80;1.23;;;;;;;1.21;86.48;102690.81;5090731;28;20207;-82
2023/02/04 06:46:12;;;;;;;3.07;1.37;;;;;;;1.18;86.86;102707.41;5086514;28;20207;-82
2023/02/04 06:48:39;;;;;;;1.43;1.30;;;;;;;1.16;86.95;102705.63;5086632;28;20829;-82
2023/02/04 06:51:06;;;;;;;1.60;1.37;;;;;;;1.14;87.28;102691.63;5090384;28;20707;-81
2023/02/04 06:53:32;;;;;;;3.83;1.30;;;;;;;1.10;87.08;102703.81;5092644;28;20298;-83
2023/02/04 06:55:58;;;;;;;2.23;1.43;;;;;;;1.07;87.21;102709.06;5088855;28;20204;-82
2023/02/04 06:58:26;;;;;;;1.87;1.30;;;;;;;1.04;87.56;102716.91;5094740;28;20295;-82
2023/02/04 07:00:53;;;;;;;2.00;1.40;;;;;;;1.00;87.72;102720.38;5090739;28;20200;-82
2023/02/04 07:03:19;;;;;;;1.40;1.30;;;;;;;0.97;87.38;102722.97;5089029;28;20199;-82
2023/02/04 07:05:46;;;;;;;2.37;1.43;;;;;;;0.93;87.59;102718.53;5086154;28;20232;-81
2023/02/04 07:08:12;;;;;;;2.70;1.60;;;;;;;0.91;87.74;102728.13;5085234;28;20557;-82
2023/02/04 07:10:39;;;;;;;3.63;1.80;;;;;;;0.88;87.94;102728.13;5093834;28;20235;-83
2023/02/04 07:13:05;;;;;;;6.17;3.47;;;;;;;0.86;88.08;102742.97;5087858;28;20208;-79
2023/02/04 07:15:33;;;;;;;6.50;3.40;;;;;;;0.83;88.31;102748.19;5090179;28;20224;-81
2023/02/04 07:18:00;;;;;;;7.47;4.80;;;;;;;0.81;88.47;102752.53;5088579;28;20204;-79
2023/02/04 07:20:26;;;;;;;7.67;5.13;;;;;;;0.78;88.73;102758.63;5086740;28;20217;-82
2023/02/04 07:22:53;;;;;;;8.00;5.03;;;;;;;0.77;88.72;102761.22;5086283;28;20211;-79
2023/02/04 07:25:19;;;;;;;5.57;3.97;;;;;;;0.74;89.22;102771.69;5091645;28;20200;-82
2023/02/04 07:27:45;;;;;;;8.77;4.33;;;;;;;0.74;89.36;102766.44;5086983;28;20196;-81
2023/02/04 07:30:13;;;;;;;6.67;4.17;;;;;;;0.73;89.67;102775.16;5089650;28;20719;-82
2023/02/04 07:32:41;;;;;;;5.50;3.70;;;;;;;0.74;90.01;102774.28;5085239;28;20322;-81
2023/02/04 07:35:08;;;;;;;6.07;4.23;;;;;;;0.74;90.17;102779.53;5084836;28;20208;-81
2023/02/04 07:37:34;;;;;;;5.67;4.20;;;;;;;0.75;90.08;102784.81;5089233;28;20204;-82
2023/02/04 07:40:00;;;;;;;6.93;3.70;;;;;;;0.75;90.61;102778.69;5090849;28;20221;-83
2023/02/04 07:42:27;;;;;;;5.73;4.13;;;;;;;0.77;90.63;102787.44;5090407;28;20201;-80
2023/02/04 07:44:53;;;;;;;5.73;4.07;;;;;;;0.78;91.04;102799.69;5088981;28;22245;-83
2023/02/04 07:47:22;;;;;;;4.67;3.63;;;;;;;0.79;90.82;102801.47;5091335;28;20200;-80
2023/02/04 07:49:50;;;;;;;5.63;5.03;;;;;;;0.81;91.62;102813.75;5093859;28;20232;-81
2023/02/04 07:52:16;;;;;;;6.47;5.00;;;;;;;0.84;91.76;102815.53;5090658;28;20585;-82
2023/02/04 07:54:42;;;;;;;7.63;4.80;;;;;;;0.85;92.04;102817.28;5088673;28;20741;-82
2023/02/04 07:57:09;;;;;;;6.23;3.30;;;;;;;0.86;92.17;102817.31;5093712;28;20656;-82
2023/02/04 07:59:35;;;;;;;3.97;2.50;;;;;;;0.86;92.09;102825.19;5089314;28;20239;-82
2023/02/04 08:02:02;;;;;;;4.83;2.37;;;;;;;0.85;91.95;102822.53;5090174;28;20207;-81
2023/02/04 08:04:28;;;;;;;4.13;2.00;;;;;;;0.83;92.04;102827.75;5086807;28;20212;-81
2023/02/04 08:06:56;;;;;;;2.67;1.67;;;;;;;0.83;92.47;102833.00;5084257;28;20642;-80
2023/02/04 08:09:25;;;;;;;5.13;1.80;;;;;;;0.83;92.40;102842.63;5084493;28;20224;-82
2023/02/04 08:11:52;;;;;;;2.50;1.80;;;;;;;0.84;92.65;102841.75;5088509;28;20227;-81
2023/02/04 08:14:19;;;;;;;3.10;1.90;;;;;;;0.84;92.37;102836.50;5084553;28;20213;-84
2023/02/04 08:16:45;;;;;;;4.30;2.20;;;;;;;0.87;92.79;102839.16;5090664;28;20235;-82
2023/02/04 08:19:17;;;;;;;5.43;4.93;;;;;;;0.89;93.27;102845.31;5084038;28;20227;-81
2023/02/04 08:21:44;;;;;;;2.33;2.13;;;;;;;0.89;93.11;102843.56;5089081;28;20228;-80
2023/02/04 08:24:12;;;;;;;3.10;1.40;;;;;;;0.89;93.10;102845.31;5085875;28;20211;-81
2023/02/04 08:26:39;;;;;;;3.63;1.60;;;;;;;0.89;93.18;102851.44;5086421;28;20200;-81
2023/02/04 08:29:05;;;;;;;7.00;5.47;;;;;;;0.92;93.59;102850.56;5086080;28;20220;-81
2023/02/04 08:31:32;;;;;;;7.83;6.07;;;;;;;0.97;94.06;102851.50;5086898;28;20230;-83
2023/02/04 08:33:59;;;;;;;5.37;4.03;;;;;;;1.06;94.31;102854.25;5086575;28;20212;-81
2023/02/04 08:36:25;;;;;;;5.03;3.57;;;;;;;1.15;94.90;102842.97;5087786;28;20234;-81
2023/02/04 08:38:52;;;;;;;3.10;2.40;;;;;;;1.24;95.42;102835.19;5089430;28;20227;-82
2023/02/04 08:41:20;;;;;;;3.80;2.47;;;;;;;1.33;95.80;102845.78;5087831;28;20196;-83
2023/02/04 08:43:46;;;;;;;3.77;2.33;;;;;;;1.39;96.14;102835.34;5086256;28;20230;-81
2023/02/04 08:46:13;;;;;;;4.63;2.90;;;;;;;1.46;96.73;102831.00;5085905;28;20236;-82
2023/02/04 08:48:39;;;;;;;4.07;3.13;;;;;;;1.53;96.89;102832.84;5089471;28;20219;-79
2023/02/04 08:51:06;;;;;;;4.93;3.33;;;;;;;1.63;97.45;102837.28;5080101;28;20224;-82
2023/02/04 08:53:32;;;;;;;4.97;3.30;;;;;;;1.74;98.01;102848.78;5088370;28;20230;-82
2023/02/04 08:55:58;;;;;;;3.43;3.07;;;;;;;1.83;98.06;102850.56;5088472;28;20541;-82
2023/02/04 08:58:26;;;;;;;3.93;3.03;;;;;;;1.89;98.08;102848.88;5086314;28;20224;-80
2023/02/04 09:00:53;;;;;;;3.73;2.47;;;;;;;1.98;98.77;102859.44;5090957;28;20215;-79
2023/02/04 09:03:19;;;;;;;2.97;2.47;;;;;;;2.06;98.68;102862.16;5091689;28;20208;-82
2023/02/04 09:05:46;;;;;;;3.50;2.90;;;;;;;2.15;98.02;102861.34;5086737;28;20204;-83
2023/02/04 09:08:14;;;;;;;4.37;2.20;;;;;;;2.27;98.82;102874.56;5081776;28;20223;-81
2023/02/04 09:10:41;;;;;;;3.83;2.47;;;;;;;2.37;98.99;102879.88;5081732;28;20235;-82
2023/02/04 09:13:10;;;;;;;2.30;2.10;;;;;;;2.49;99.22;102871.19;5085431;28;20208;-80
2023/02/04 09:15:38;;;;;;;3.40;2.40;;;;;;;2.58;98.05;102879.13;5085722;28;20248;-81
2023/02/04 09:18:13;;;;;;;2.40;1.73;;;;;;;2.66;97.89;102880.06;5086612;28;20208;-81
2023/02/04 09:20:40;;;;;;;4.70;1.90;;;;;;;2.75;98.04;102879.19;5084063;28;20223;-82
2023/02/04 09:23:07;;;;;;;2.80;2.30;;;;;;;2.86;97.75;102888.03;5083032;28;20216;-79
2023/02/04 09:25:42;;;;;;;3.13;2.10;;;;;;;2.96;97.54;102887.19;5082396;28;20226;-81
2023/02/04 09:28:10;;;;;;;2.87;1.80;;;;;;;3.08;96.04;102891.59;5079334;28;20212;-81
2023/02/04 09:30:38;;;;;;;4.17;1.83;;;;;;;3.19;95.48;102895.16;5085454;28;20227;-83
2023/02/04 09:33:06;;;;;;;4.73;2.17;;;;;;;3.30;94.98;102896.06;5087668;28;20200;-84
2023/02/04 09:35:33;;;;;;;3.20;1.83;;;;;;;3.42;94.61;102901.34;5086147;28;20287;-81
2023/02/04 09:38:00;;;;;;;2.37;1.90;;;;;;;3.54;93.84;102904.91;5084217;28;20350;-82
2023/02/04 09:40:33;;;;;;;3.60;1.80;;;;;;;3.58;92.56;102917.22;5088113;28;20231;-81
2023/02/04 09:43:00;;;;;;;4.10;1.97;;;;;;;3.62;91.92;102911.94;5085156;28;20216;-80
2023/02/04 09:45:29;;;;;;;2.63;1.63;;;;;;;3.68;91.19;102919.84;5077092;28;20211;-82
2023/02/04 09:47:59;;;;;;;4.10;1.97;;;;;;;3.74;90.52;102914.59;5075455;28;20201;-81
2023/02/04 09:50:28;;;;;;;6.10;2.30;;;;;;;3.79;90.09;102912.81;5075317;28;20236;-80
2023/02/04 09:53:00;;;;;;;3.80;2.03;;;;;;;3.85;88.76;102917.22;5079667;28;20293;-79
2023/02/04 09:55:29;;;;;;;3.30;2.13;;;;;;;3.83;87.50;102925.13;5083686;28;20211;-82
2023/02/04 09:57:56;;;;;;;3.00;1.80;;;;;;;3.86;86.18;102916.34;5081423;28;20201;-80
2023/02/04 10:00:28;;;;;;;3.00;1.80;;;;;;;3.83;85.77;102918.97;5075632;28;20239;-79
2023/02/04 10:02:58;;;;;;;1.90;1.60;;;;;;;3.81;85.42;102931.28;5076652;28;20645;-82
2023/02/04 10:05:31;;;;;;;4.17;1.80;;;;;;;3.80;84.68;102930.41;5078927;28;20266;-80
2023/02/04 10:07:58;;;;;;;3.27;1.87;;;;;;;3.81;84.65;102932.16;5081098;28;20235;-81
2023/02/04 10:10:27;;;;;;;6.90;2.17;;;;;;;3.84;84.77;102932.16;5083918;28;20730;-79
2023/02/04 10:13:01;;;;;;;2.53;1.60;;;;;;;3.88;84.50;102926.91;5089259;28;20200;-80
2023/02/04 10:15:28;;;;;;;3.13;1.73;;;;;;;3.94;84.14;102934.81;5086350;28;20652;-79
2023/02/04 10:18:01;;;;;;;3.43;1.93;;;;;;;3.98;84.28;102942.72;5081172;28;20212;-80
2023/02/04 10:20:27;;;;;;;4.20;1.90;;;;;;;4.05;84.74;102946.25;5083796;28;20239;-80
2023/02/04 10:22:55;;;;;;;4.30;1.80;;;;;;;4.06;84.13;102954.16;5086986;28;20208;-80
2023/02/04 10:25:24;;;;;;;4.53;1.70;;;;;;;4.07;83.40;102955.03;5090449;28;20203;-81
2023/02/04 10:27:52;;;;;;;2.33;1.90;;;;;;;4.03;83.01;102958.53;5081074;28;20211;-81
2023/02/04 10:30:21;;;;;;;2.60;1.93;;;;;;;3.98;82.84;102966.44;5086269;28;20223;-82
2023/02/04 10:32:48;;;;;;;2.27;1.90;;;;;;;3.93;82.32;102968.22;5085494;28;20229;-81
2023/02/04 10:35:18;;;;;;;4.63;1.90;;;;;;;3.95;82.16;102968.19;5085785;28;20223;-81
2023/02/04 10:37:46;;;;;;;4.13;2.30;;;;;;;3.99;82.50;102964.69;5083412;28;20200;-80
2023/02/04 10:40:29;;;;;;;3.27;2.40;;;;;;;4.01;82.20;102968.19;5085452;28;20235;-81
2023/02/04 10:42:56;;;;;;;3.90;2.40;;;;;;;4.01;82.42;102970.84;5082983;28;20571;-81
2023/02/04 10:45:25;;;;;;;2.73;2.03;;;;;;;4.01;82.39;102968.19;5093648;28;20583;-81
2023/02/04 10:47:53;;;;;;;6.17;3.10;;;;;;;4.00;82.19;102966.44;5095170;28;20683;-82
2023/02/04 10:50:22;;;;;;;3.80;2.67;;;;;;;4.00;82.11;102977.00;5088725;28;20231;-81
2023/02/04 10:52:51;;;;;;;3.93;2.83;;;;;;;4.02;82.46;102973.47;5081212;28;20255;-83
2023/02/04 10:55:20;;;;;;;4.93;2.57;;;;;;;4.08;82.61;102983.16;5090884;28;20204;-81
2023/02/04 10:57:48;;;;;;;3.50;2.83;;;;;;;4.11;82.58;102977.91;5085441;28;20196;-82
2023/02/04 11:00:18;;;;;;;3.03;2.40;;;;;;;4.14;82.32;102985.78;5084788;28;20227;-81
2023/02/04 11:02:48;;;;;;;3.70;2.10;;;;;;;4.13;82.32;102984.03;5083932;28;20232;-82
2023/02/04 11:05:17;;;;;;;4.53;2.33;;;;;;;4.10;81.98;102970.84;5086742;28;20212;-82
2023/02/04 11:07:50;;;;;;;5.13;2.80;;;;;;;4.07;81.69;102974.38;5080637;28;20783;-82
2023/02/04 11:10:19;;;;;;;5.47;2.40;;;;;;;4.05;81.68;102962.94;5080202;28;20232;-80
2023/02/04 11:12:47;;;;;;;3.93;2.13;;;;;;;4.07;81.14;102966.47;5083817;28;20231;-81
2023/02/04 11:15:37;;;;;;;3.40;2.00;;;;;;;4.11;81.24;102968.22;5082091;28;20594;-82
2023/02/04 11:18:05;;;;;;;6.33;2.50;;;;;;;4.12;80.89;102964.69;5083050;28;20215;-81
2023/02/04 11:20:35;;;;;;;4.03;2.53;;;;;;;4.12;81.17;102977.88;5086028;28;20584;-80
2023/02/04 11:23:17;;;;;;;4.43;1.50;;;;;;;4.15;80.74;102971.72;5087181;28;20284;-80
2023/02/04 11:25:43;;;;;;;2.53;1.37;;;;;;;4.16;80.05;102971.72;5083764;28;20200;-80
2023/02/04 11:28:14;;;;;;;4.53;2.07;;;;;;;4.16;80.07;102979.63;5078062;28;20216;-80
2023/02/04 11:30:40;;;;;;;3.00;2.17;;;;;;;4.18;79.19;102969.09;5082759;28;20193;-79
2023/02/04 11:33:23;;;;;;;3.53;2.17;;;;;;;4.20;79.49;102975.25;5078882;28;20588;-80